»·PEaware :: SWA859 KLAS-KLGB

SWA859 :: KLAS-KLGB

FLIGHT INFORMATION

Flight Status: Arrived
Operator:
Southwest Airlines
More flights by this operator :: More flights under this callsign
Pilot: Anonymous 7386 (7386)
Aircraft: BOEING 737-800
(B738)
More flights by this aircraft type
Origin: KLAS McCarran Intl
United States
Destination: KLGB Long Beach
United States
More flights between these airports :: More routes between these airports
Route: +BOACH8 WHIGG FEYLA DSNEE4
File this flight plan on PilotEdge
Remarks:
Altitude:
(Current/Filed)
28,000ft
Speed:
(Current/Filed)
453kts
Departed: 03-Sep-20 07:31 PM
Arrived: 03-Sep-20 08:14 PM
Distance/Time
Traveled:
200nm/0:43
Distance/Time
To Go:
Arrived

Flight Plot

Page will automatically refresh every two minutes.

Flight plan parsing failed; only flown route is shown


Map Options




Map Legend


Flown Route
Filed Route
Departure Airport
Arrival Airport
Navaid (VOR, NDB)
Fix

Horizontal Profiles

Position Reports

Time Latitude Longitude Heading Altitude Ground
Speed
03-Sep-20 18:53 36.080666 -115.145844 270 2121ft 0kts
03-Sep-20 18:54 36.080666 -115.145844 270 2121ft 0kts
03-Sep-20 18:55 36.080666 -115.145844 270 2121ft 0kts
03-Sep-20 18:56 36.080666 -115.145844 270 2121ft 0kts
03-Sep-20 18:57 36.080666 -115.145844 270 2121ft 0kts
03-Sep-20 18:58 36.080666 -115.145844 270 2121ft 0kts
03-Sep-20 18:59 36.080666 -115.145844 270 2121ft 0kts
03-Sep-20 19:00 36.080666 -115.145844 270 2121ft 0kts
03-Sep-20 19:01 36.080666 -115.145844 270 2121ft 0kts
03-Sep-20 19:02 36.080666 -115.145844 270 2121ft 0kts
03-Sep-20 19:03 36.080666 -115.145844 270 2121ft 0kts
03-Sep-20 19:04 36.080666 -115.145844 270 2121ft 0kts
03-Sep-20 19:05 36.080666 -115.145844 270 2121ft 0kts
03-Sep-20 19:06 36.080666 -115.145844 270 2121ft 0kts
03-Sep-20 19:07 36.080666 -115.145844 270 2121ft 0kts
03-Sep-20 19:08 36.080666 -115.145844 270 2121ft 0kts
03-Sep-20 19:09 36.080666 -115.145844 270 2121ft 0kts
03-Sep-20 19:10 36.080666 -115.145844 270 2121ft 0kts
03-Sep-20 19:11 36.080666 -115.145844 270 2121ft 0kts
03-Sep-20 19:12 36.080666 -115.145844 270 2121ft 0kts
03-Sep-20 19:13 36.080666 -115.145844 270 2121ft 0kts
03-Sep-20 19:14 36.080666 -115.145844 270 2121ft 0kts
03-Sep-20 19:15 36.080666 -115.145844 270 2121ft 0kts
03-Sep-20 19:16 36.080666 -115.145844 270 2121ft 0kts
03-Sep-20 19:17 36.080666 -115.145844 270 2121ft 0kts
03-Sep-20 19:18 36.080666 -115.145844 270 2121ft 0kts
03-Sep-20 19:19 36.080666 -115.145844 269 2121ft 0kts
03-Sep-20 19:20 36.080666 -115.145844 269 2121ft 0kts
03-Sep-20 19:21 36.080973 -115.145158 110 2121ft 6kts
03-Sep-20 19:22 36.080777 -115.144922 157 2121ft 0kts
03-Sep-20 19:23 36.080777 -115.144922 157 2121ft 0kts
03-Sep-20 19:24 36.080564 -115.144870 175 2121ft 0kts
03-Sep-20 19:25 36.078339 -115.144477 179 2121ft 13kts
03-Sep-20 19:26 36.077927 -115.149522 274 2121ft 18kts
03-Sep-20 19:27 36.078030 -115.156012 269 2121ft 18kts
03-Sep-20 19:28 36.077572 -115.161243 190 2121ft 5kts
03-Sep-20 19:29 36.076728 -115.161308 177 2121ft 9kts
03-Sep-20 19:30 36.076422 -115.141177 90 2129ft 172kts
03-Sep-20 19:31 36.075910 -115.077380 86 4274ft 216kts
03-Sep-20 19:32 36.072897 -114.989447 106 6425ft 285kts
03-Sep-20 19:33 36.015977 -114.924019 159 9635ft 302kts
03-Sep-20 19:34 35.938948 -114.967081 226 11393ft 358kts
03-Sep-20 19:35 35.868490 -115.058263 226 14128ft 376kts
03-Sep-20 19:36 35.795136 -115.153085 226 16844ft 390kts
03-Sep-20 19:37 35.719190 -115.251170 226 19397ft 403kts
03-Sep-20 19:38 35.640901 -115.352190 226 21749ft 415kts
03-Sep-20 19:39 35.560470 -115.455893 226 23897ft 427kts
03-Sep-20 19:40 35.478311 -115.563136 228 25892ft 437kts
03-Sep-20 19:41 35.395640 -115.674917 227 27675ft 448kts
03-Sep-20 19:42 35.310620 -115.789633 228 27886ft 460kts
03-Sep-20 19:43 35.224934 -115.904473 227 27877ft 458kts
03-Sep-20 19:44 35.136532 -116.015892 225 27901ft 458kts
03-Sep-20 19:45 35.047886 -116.127297 225 27939ft 457kts
03-Sep-20 19:46 34.959483 -116.238274 225 27950ft 453kts
03-Sep-20 19:47 34.874971 -116.344115 225 27956ft 440kts
03-Sep-20 19:48 34.790339 -116.451635 226 27515ft 433kts
03-Sep-20 19:49 34.709957 -116.553769 224 25663ft 409kts
03-Sep-20 19:50 34.621803 -116.644500 217 23491ft 414kts
03-Sep-20 19:51 34.534242 -116.730388 217 21339ft 396kts
03-Sep-20 19:52 34.454226 -116.817813 222 19236ft 383kts
03-Sep-20 19:53 34.378474 -116.905635 222 17155ft 372kts
03-Sep-20 19:54 34.304689 -116.990828 222 15109ft 366kts
03-Sep-20 19:55 34.226153 -117.063223 209 13625ft 342kts
03-Sep-20 19:56 34.144545 -117.117188 202 13053ft 334kts
03-Sep-20 19:57 34.059843 -117.162323 202 12501ft 331kts
03-Sep-20 19:58 33.982536 -117.217592 224 11746ft 308kts
03-Sep-20 19:59 33.927140 -117.293232 229 10556ft 296kts
03-Sep-20 20:00 33.875252 -117.366649 230 9144ft 278kts
03-Sep-20 20:01 33.826542 -117.435884 234 8029ft 268kts
03-Sep-20 20:02 33.796996 -117.516351 251 7988ft 265kts
03-Sep-20 20:03 33.772116 -117.598406 250 7753ft 258kts
03-Sep-20 20:04 33.747653 -117.679485 250 6553ft 256kts
03-Sep-20 20:05 33.724445 -117.757804 250 5342ft 238kts
03-Sep-20 20:06 33.702792 -117.830656 250 4142ft 226kts
03-Sep-20 20:07 33.700940 -117.901946 281 3634ft 210kts
03-Sep-20 20:09 33.713138 -117.967191 282 3007ft 191kts
03-Sep-20 20:10 33.726683 -118.026532 291 2815ft 180kts
03-Sep-20 20:11 33.753630 -118.073149 314 1832ft 156kts
03-Sep-20 20:12 33.782766 -118.108600 311 885ft 145kts
03-Sep-20 20:13 33.810446 -118.142512 315 125ft 141kts
03-Sep-20 20:14 33.821640 -118.154280 89 70ft 1kts
03-Sep-20 20:15 33.821627 -118.152375 90 70ft 13kts
03-Sep-20 20:16 33.821619 -118.147540 98 70ft 11kts
03-Sep-20 20:17 33.818758 -118.146896 146 70ft 9kts
03-Sep-20 20:18 33.818608 -118.146150 90 70ft 0kts

Navigation Log

Ident Type
Flight plan parsing failed, navigation log unavailable